Time;durP1;ratioP1;P1;durP2;ratioP2;P2;SDS_P1;SDS_P2;PMS_P1;PMS_P2;Temp;Humidity;BMP_temperature;BMP_pressure;BME280_temperature;BME280_humidity;BME280_pressure;Samples;Min_cycle;Max_cycle;Signal;HPM_P1;HPM_P2
2022/01/25 00:28:18;;;;;;;59.05;33.78;;;;;;;3.61;100.00;103129.97;4894562;29;20580;-45
2022/01/25 00:31:10;;;;;;;54.65;32.35;;;;;;;3.66;100.00;103136.31;4894848;29;20705;-43
2022/01/25 00:33:32;;;;;;;53.97;33.17;;;;;;;3.61;100.00;103132.63;4894330;29;20205;-46
2022/01/25 00:35:59;;;;;;;56.45;32.65;;;;;;;3.65;100.00;103129.19;4894644;29;20255;-44
2022/01/25 00:38:25;;;;;;;59.30;34.47;;;;;;;3.60;100.00;103130.81;4894515;29;20689;-44
2022/01/25 00:40:50;;;;;;;57.42;34.65;;;;;;;3.58;100.00;103136.06;4895485;29;20265;-44
2022/01/25 00:43:17;;;;;;;62.03;33.67;;;;;;;3.57;100.00;103138.69;4897981;29;20180;-44
2022/01/25 00:45:42;;;;;;;62.70;34.30;;;;;;;3.58;100.00;103143.13;4897979;29;20256;-46
2022/01/25 00:48:17;;;;;;;63.83;35.00;;;;;;;3.54;100.00;103142.13;4897835;29;20192;-46
2022/01/25 00:50:43;;;;;;;59.15;33.92;;;;;;;3.59;100.00;103137.88;4898142;29;20658;-44
2022/01/25 00:55:35;;;;;;;60.15;34.20;;;;;;;3.57;100.00;103129.00;4897695;29;20169;-46
2022/01/25 00:58:01;;;;;;;54.72;33.17;;;;;;;3.61;100.00;103116.72;4897808;29;20263;-46
2022/01/25 01:00:27;;;;;;;60.03;34.15;;;;;;;3.63;100.00;103120.28;4897581;29;20211;-47
2022/01/25 01:02:53;;;;;;;63.88;33.40;;;;;;;3.56;100.00;103110.38;4897908;29;20209;-46
2022/01/25 01:05:19;;;;;;;56.92;33.03;;;;;;;3.59;100.00;103102.53;4897249;29;20165;-45
2022/01/25 01:07:45;;;;;;;61.78;34.10;;;;;;;3.61;100.00;103114.09;4897732;29;20212;-47
2022/01/25 01:10:15;;;;;;;58.28;33.50;;;;;;;3.66;100.00;103113.34;4897601;29;20188;-44
2022/01/25 01:13:14;;;;;;;56.15;32.05;;;;;;;3.66;100.00;103107.13;4897640;29;20193;-46
2022/01/25 01:15:46;;;;;;;58.67;33.40;;;;;;;3.58;100.00;103119.28;4897277;29;20219;-46
2022/01/25 01:29:18;;;;;;;55.13;32.67;;;;;;;3.55;100.00;103109.50;4897204;29;20188;-46
2022/01/25 01:45:30;;;;;;;53.50;32.20;;;;;;;3.56;100.00;103113.03;4895398;29;20323;-46
2022/01/25 01:47:35;;;;;;;51.58;30.35;;;;;;;3.56;100.00;103105.09;4891783;29;20248;-46
2022/01/25 01:50:02;;;;;;;54.78;31.38;;;;;;;3.54;100.00;103107.69;4896848;29;20276;-46
2022/01/25 01:52:29;;;;;;;54.78;32.15;;;;;;;3.56;100.00;103118.34;4896340;29;20328;-44
2022/01/25 01:54:54;;;;;;;55.85;31.55;;;;;;;3.60;100.00;103102.56;4895671;29;20185;-46
2022/01/25 01:57:20;;;;;;;57.92;32.03;;;;;;;3.54;100.00;103109.44;4896667;29;20287;-45
2022/01/25 01:59:45;;;;;;;57.25;31.52;;;;;;;3.52;100.00;103112.06;4895255;29;20176;-45
2022/01/25 02:02:11;;;;;;;56.97;29.90;;;;;;;3.66;100.00;103117.75;4896870;29;20396;-45
2022/01/25 02:04:36;;;;;;;58.63;31.08;;;;;;;3.57;100.00;103113.09;4896378;29;20180;-45
2022/01/25 02:07:02;;;;;;;67.88;32.90;;;;;;;3.56;100.00;103113.03;4896464;29;20207;-45
2022/01/25 02:09:27;;;;;;;58.03;30.58;;;;;;;3.55;100.00;103109.50;4896437;29;20204;-44
2022/01/25 02:11:53;;;;;;;57.05;31.40;;;;;;;3.54;100.00;103105.03;4896794;29;20205;-46
2022/01/25 02:14:19;;;;;;;54.83;31.10;;;;;;;3.69;100.00;103107.22;4896111;29;20283;-46
2022/01/25 02:24:45;;;;;;;54.25;29.85;;;;;;;3.66;100.00;103115.09;4895890;29;20203;-46
2022/01/25 02:27:11;;;;;;;60.03;30.23;;;;;;;3.65;100.00;103124.81;4896322;29;20658;-48
2022/01/25 02:29:37;;;;;;;54.78;31.08;;;;;;;3.59;100.00;103115.78;4886603;29;20585;-45
2022/01/25 02:32:04;;;;;;;56.00;30.50;;;;;;;3.56;100.00;103107.72;4879536;29;20824;-45
2022/01/25 02:34:29;;;;;;;52.22;28.85;;;;;;;3.63;100.00;103105.31;4914355;29;20169;-45
2022/01/25 02:36:59;;;;;;;51.95;30.52;;;;;;;3.63;100.00;103104.38;4915012;29;20200;-44
2022/01/25 02:39:25;;;;;;;57.17;30.95;;;;;;;3.59;100.00;103102.53;4914426;29;20206;-45
2022/01/25 02:41:52;;;;;;;53.30;29.33;;;;;;;3.64;100.00;103096.47;4915053;29;20271;-45
2022/01/25 02:44:23;;;;;;;54.55;30.48;;;;;;;3.59;100.00;103098.13;4914409;29;20187;-45
2022/01/25 02:49:16;;;;;;;57.50;30.98;;;;;;;3.59;100.00;103099.88;4914274;29;20311;-47
2022/01/25 02:51:48;;;;;;;50.78;29.60;;;;;;;3.60;100.00;103097.25;4914721;29;20182;-46
2022/01/25 02:54:16;;;;;;;54.47;30.33;;;;;;;3.65;100.00;103089.41;4913487;29;20187;-44
2022/01/25 02:56:44;;;;;;;59.60;31.08;;;;;;;3.60;100.00;103097.25;4914552;29;20250;-45
2022/01/25 02:59:11;;;;;;;48.00;27.50;;;;;;;3.72;100.00;103088.75;4914313;29;20307;-44
2022/01/25 03:01:37;;;;;;;52.95;29.13;;;;;;;3.78;100.00;103088.00;4914138;29;20226;-45
2022/01/25 03:04:04;;;;;;;53.58;30.42;;;;;;;3.68;100.00;103095.72;4913354;29;20180;-45
2022/01/25 03:06:30;;;;;;;51.92;29.08;;;;;;;3.69;100.00;103097.50;4914255;29;20200;-44
2022/01/25 03:08:55;;;;;;;50.78;28.98;;;;;;;3.72;100.00;103089.63;4913992;29;20172;-47
2022/01/25 03:11:23;;;;;;;55.67;29.00;;;;;;;3.67;100.00;103095.66;4913810;29;20416;-46
2022/01/25 03:13:54;;;;;;;50.67;29.45;;;;;;;3.64;100.00;103082.34;4914036;29;20211;-46
2022/01/25 03:16:37;;;;;;;55.60;29.08;;;;;;;3.70;100.00;103082.50;4914413;29;20219;-45
2022/01/25 03:19:28;;;;;;;51.15;29.25;;;;;;;3.70;100.00;103075.44;4913925;29;20204;-45
2022/01/25 03:21:51;;;;;;;49.83;27.60;;;;;;;3.72;100.00;103081.69;4902593;29;20199;-44
2022/01/25 03:24:16;;;;;;;49.60;28.15;;;;;;;3.72;100.00;103075.50;4894574;29;20627;-46
2022/01/25 03:26:41;;;;;;;50.25;28.70;;;;;;;3.69;100.00;103075.41;4895150;29;20253;-47
2022/01/25 03:29:07;;;;;;;51.75;28.75;;;;;;;3.68;100.00;103066.56;4895226;29;20638;-46
2022/01/25 03:31:32;;;;;;;54.42;28.15;;;;;;;3.77;100.00;103059.72;4895134;29;20553;-46
2022/01/25 03:33:58;;;;;;;48.83;28.10;;;;;;;3.66;100.00;103052.34;4894886;29;20664;-45
2022/01/25 03:36:25;;;;;;;49.47;28.48;;;;;;;3.69;100.00;103052.44;4895068;29;20212;-47
2022/01/25 03:38:50;;;;;;;50.47;28.50;;;;;;;3.72;100.00;103054.28;4895438;29;20224;-44
2022/01/25 03:41:17;;;;;;;52.90;28.95;;;;;;;3.70;100.00;103051.59;4895250;29;20548;-45
2022/01/25 03:43:50;;;;;;;53.97;28.42;;;;;;;3.62;100.00;103061.09;4894876;29;20173;-46
2022/01/25 03:46:22;;;;;;;53.63;30.52;;;;;;;3.67;100.00;103059.47;4894963;29;20200;-44
2022/01/25 03:51:31;;;;;;;53.92;28.40;;;;;;;3.64;100.00;103059.38;4895148;29;20180;-45
2022/01/25 03:53:56;;;;;;;59.92;30.88;;;;;;;3.62;100.00;103052.25;4894751;29;20183;-47
2022/01/25 03:56:23;;;;;;;57.30;28.85;;;;;;;3.59;100.00;103049.53;4895222;29;20283;-46
2022/01/25 03:58:49;;;;;;;52.90;29.40;;;;;;;3.66;100.00;103057.66;4894898;29;20340;-47
2022/01/25 04:01:14;;;;;;;58.75;31.00;;;;;;;3.62;100.00;103047.81;4895336;29;20561;-46
2022/01/25 04:03:47;;;;;;;55.33;28.73;;;;;;;3.62;100.00;103044.28;4893321;29;20263;-44
2022/01/25 04:06:18;;;;;;;53.08;28.75;;;;;;;3.63;100.00;103047.00;4895098;29;20622;-45
2022/01/25 04:08:43;;;;;;;56.05;29.08;;;;;;;3.59;100.00;103055.72;4894988;29;20196;-46
2022/01/25 04:11:09;;;;;;;53.28;29.42;;;;;;;3.74;100.00;103054.31;4894796;29;20176;-46
2022/01/25 04:13:34;;;;;;;55.65;29.50;;;;;;;3.68;100.00;103070.97;4894717;29;20653;-47
2022/01/25 04:16:07;;;;;;;51.10;27.77;;;;;;;3.66;100.00;103062.06;4897192;29;20616;-45
2022/01/25 04:18:49;;;;;;;52.97;28.48;;;;;;;3.66;100.00;103072.69;4898647;29;20220;-45
2022/01/25 04:26:43;;;;;;;54.45;28.40;;;;;;;3.69;100.00;103052.44;4898369;29;20590;-44
2022/01/25 04:29:09;;;;;;;52.05;26.45;;;;;;;3.71;100.00;103057.78;4896975;29;20185;-48
2022/01/25 04:31:36;;;;;;;56.08;27.67;;;;;;;3.77;100.00;103051.75;4896206;29;20221;-47
2022/01/25 04:50:05;;;;;;;50.10;26.27;;;;;;;3.81;100.00;103040.38;4916652;29;20180;-47
2022/01/25 04:52:37;;;;;;;57.58;26.92;;;;;;;3.75;100.00;103041.09;4916963;29;20593;-47
2022/01/25 04:55:51;;;;;;;48.70;25.45;;;;;;;3.79;100.00;103034.13;4916556;29;20543;-44
2022/01/25 04:57:58;;;;;;;51.22;26.17;;;;;;;3.82;100.00;103039.50;4916062;29;20223;-47
2022/01/25 05:00:25;;;;;;;40.05;25.00;;;;;;;3.81;100.00;103041.25;4917041;29;20597;-46
2022/01/25 05:02:55;;;;;;;42.38;24.45;;;;;;;3.81;100.00;103035.97;4916406;29;20247;-45
2022/01/25 05:05:30;;;;;;;47.80;25.90;;;;;;;3.78;100.00;103038.50;4916209;29;20223;-44
2022/01/25 05:08:20;;;;;;;52.17;25.75;;;;;;;3.78;100.00;103035.84;4916517;29;20208;-46
2022/01/25 05:11:00;;;;;;;42.42;24.23;;;;;;;3.79;100.00;103036.78;4916781;29;20219;-46
2022/01/25 05:16:28;;;;;;;48.40;25.67;;;;;;;3.83;100.00;103036.00;4916705;29;20200;-46
2022/01/25 05:24:27;;;;;;;49.03;23.13;;;;;;;3.88;100.00;103037.00;4895917;29;20260;-45
2022/01/25 05:26:53;;;;;;;47.08;23.20;;;;;;;3.83;100.00;103033.34;4896445;29;20216;-47
2022/01/25 05:29:19;;;;;;;42.45;22.83;;;;;;;3.84;100.00;103035.13;4897606;29;20656;-45
2022/01/25 05:31:44;;;;;;;39.15;23.60;;;;;;;3.95;100.00;103046.00;4897408;29;20243;-46
2022/01/25 05:34:10;;;;;;;42.88;22.45;;;;;;;3.92;100.00;103041.53;4897238;29;20370;-47
2022/01/25 05:36:36;;;;;;;46.22;23.15;;;;;;;3.88;100.00;103029.06;4896851;29;20700;-46
2022/01/25 05:39:12;;;;;;;39.70;23.08;;;;;;;3.88;100.00;103037.00;4897235;29;20209;-45
2022/01/25 05:41:39;;;;;;;41.65;21.52;;;;;;;3.96;100.00;103040.75;4897157;29;20654;-45
2022/01/25 05:46:52;;;;;;;40.83;22.38;;;;;;;3.87;100.00;103022.84;4897337;29;20209;-48
2022/01/25 05:49:19;;;;;;;40.00;22.65;;;;;;;3.89;100.00;103038.78;4896962;29;20243;-46
2022/01/25 05:51:44;;;;;;;42.08;21.95;;;;;;;3.89;100.00;103033.47;4897157;29;20584;-46
2022/01/25 05:54:10;;;;;;;42.25;20.33;;;;;;;3.92;100.00;103030.91;4895445;29;20450;-48
2022/01/25 05:56:36;;;;;;;36.95;20.83;;;;;;;3.94;100.00;103039.81;4895799;29;20637;-44
2022/01/25 05:59:01;;;;;;;40.15;21.65;;;;;;;3.91;100.00;103026.47;4897106;29;20199;-47
2022/01/25 06:01:27;;;;;;;35.53;19.95;;;;;;;3.99;100.00;103032.84;4896763;29;20181;-46
2022/01/25 06:03:54;;;;;;;36.88;21.08;;;;;;;4.00;100.00;103026.72;4896449;29;20260;-45
2022/01/25 06:06:19;;;;;;;34.10;19.92;;;;;;;4.03;100.00;103032.06;4896571;29;20192;-46
2022/01/25 06:08:44;;;;;;;37.33;21.27;;;;;;;3.96;100.00;103022.19;4896830;29;20264;-44
2022/01/25 06:11:10;;;;;;;42.70;20.55;;;;;;;4.00;100.00;103029.38;4896707;29;20595;-46
2022/01/25 06:13:35;;;;;;;36.58;20.48;;;;;;;3.98;100.00;103017.81;4896378;29;20192;-45
2022/01/25 06:16:00;;;;;;;34.80;19.90;;;;;;;3.97;100.00;103020.41;4896568;29;20200;-48
2022/01/25 06:18:26;;;;;;;36.50;20.42;;;;;;;3.93;100.00;103008.84;4896639;29;20230;-46
2022/01/25 06:20:51;;;;;;;40.92;21.20;;;;;;;3.94;100.00;103010.66;4896526;29;20228;-45
2022/01/25 06:23:17;;;;;;;38.53;19.20;;;;;;;3.95;100.00;103011.53;4896176;29;20200;-44
2022/01/25 06:25:42;;;;;;;38.33;18.60;;;;;;;3.95;100.00;103008.88;4896432;29;20176;-46
2022/01/25 06:28:08;;;;;;;34.90;19.15;;;;;;;4.03;100.00;103013.50;4896405;29;20246;-44
2022/01/25 06:30:33;;;;;;;32.53;17.55;;;;;;;3.96;100.00;103014.22;4896424;29;20176;-46
2022/01/25 06:33:00;;;;;;;35.72;18.65;;;;;;;4.00;100.00;103013.44;4895044;29;20711;-47
2022/01/25 06:35:29;;;;;;;35.90;17.30;;;;;;;4.03;100.00;103008.19;4895808;29;20166;-45
2022/01/25 06:37:54;;;;;;;34.67;17.05;;;;;;;4.02;100.00;103018.75;4895811;29;20694;-45
2022/01/25 06:40:20;;;;;;;27.77;17.40;;;;;;;4.03;100.00;103009.97;4896035;29;20184;-45
2022/01/25 06:42:46;;;;;;;34.47;16.83;;;;;;;4.02;100.00;103011.69;4896096;29;20169;-45
2022/01/25 06:45:16;;;;;;;28.25;15.52;;;;;;;4.02;100.00;103008.16;4894523;29;20216;-46
2022/01/25 06:47:42;;;;;;;28.10;15.73;;;;;;;4.07;100.00;103020.69;4894355;29;20196;-46
2022/01/25 06:50:09;;;;;;;31.85;16.00;;;;;;;4.05;100.00;103019.75;4895961;29;20683;-46
2022/01/25 06:52:37;;;;;;;28.85;15.23;;;;;;;4.12;100.00;103026.97;4895460;29;20224;-47
2022/01/25 06:55:07;;;;;;;27.73;15.82;;;;;;;4.15;100.00;103038.53;4895123;29;20249;-48
2022/01/25 06:57:33;;;;;;;27.13;15.05;;;;;;;4.11;100.00;103030.50;4895392;29;20602;-46
2022/01/25 06:59:58;;;;;;;24.58;13.45;;;;;;;4.09;100.00;103029.56;4895461;29;20193;-49
2022/01/25 07:02:24;;;;;;;28.02;14.02;;;;;;;4.10;100.00;103023.41;4895224;29;20268;-46
2022/01/25 07:04:49;;;;;;;28.65;14.27;;;;;;;4.13;100.00;103027.88;4894681;29;20204;-44
2022/01/25 07:07:15;;;;;;;26.42;13.93;;;;;;;4.12;100.00;103032.28;4895546;29;20200;-48
2022/01/25 07:09:40;;;;;;;23.85;13.55;;;;;;;4.20;100.00;103036.88;4895199;29;20204;-47
2022/01/25 07:12:06;;;;;;;24.15;13.32;;;;;;;4.24;100.00;103025.47;4895377;29;20177;-44
2022/01/25 07:14:31;;;;;;;22.13;13.63;;;;;;;4.24;100.00;103031.72;4894495;29;20578;-47
2022/01/25 07:16:57;;;;;;;18.25;12.65;;;;;;;4.27;100.00;103037.06;4895374;29;20268;-45
2022/01/25 07:19:25;;;;;;;26.08;13.35;;;;;;;4.22;100.00;103040.47;4893729;29;20315;-48
2022/01/25 07:21:51;;;;;;;21.50;12.68;;;;;;;4.20;100.00;103044.84;4901677;29;20195;-48
2022/01/25 07:24:17;;;;;;;20.13;12.05;;;;;;;4.29;100.00;103050.38;4894395;29;20189;-48
2022/01/25 07:26:43;;;;;;;21.45;12.40;;;;;;;4.25;100.00;103044.09;4894525;29;20694;-47
2022/01/25 07:29:08;;;;;;;20.35;12.82;;;;;;;4.19;100.00;103043.94;4894509;29;20264;-45
2022/01/25 07:31:34;;;;;;;20.73;12.90;;;;;;;4.21;100.00;103038.69;4894834;29;20529;-44
2022/01/25 07:34:00;;;;;;;20.83;12.73;;;;;;;4.17;100.00;103039.47;4894203;29;20177;-48
2022/01/25 07:36:25;;;;;;;22.90;12.38;;;;;;;4.19;100.00;103043.06;4894595;29;20640;-47
2022/01/25 07:38:51;;;;;;;20.95;12.50;;;;;;;4.18;100.00;103036.84;4894377;29;20673;-46
2022/01/25 07:41:16;;;;;;;22.98;12.60;;;;;;;4.16;100.00;103041.22;4894808;29;20181;-49
2022/01/25 07:43:42;;;;;;;22.60;12.25;;;;;;;4.15;100.00;103031.47;4893898;29;20177;-49
2022/01/25 07:46:08;;;;;;;23.92;13.13;;;;;;;4.12;100.00;103039.34;4894359;29;20279;-48
2022/01/25 07:48:33;;;;;;;23.55;13.35;;;;;;;4.19;100.00;103033.34;4894637;29;20177;-44
2022/01/25 07:50:58;;;;;;;28.13;12.07;;;;;;;4.24;100.00;103036.09;4896947;29;20172;-49
2022/01/25 07:53:24;;;;;;;25.98;12.80;;;;;;;4.20;100.00;103042.19;4898095;29;20259;-47
2022/01/25 07:55:49;;;;;;;27.48;12.50;;;;;;;4.21;100.00;103036.03;4898120;29;20208;-46
2022/01/25 07:58:15;;;;;;;18.17;11.93;;;;;;;4.21;100.00;103036.03;4898362;29;20201;-46
2022/01/25 08:00:40;;;;;;;20.50;11.45;;;;;;;4.24;100.00;103034.34;4898327;29;20180;-47
2022/01/25 08:03:06;;;;;;;22.45;12.23;;;;;;;4.23;100.00;103039.63;4898169;29;20169;-47
2022/01/25 08:05:32;;;;;;;21.35;12.27;;;;;;;4.25;100.00;103037.91;4897908;29;20195;-45
2022/01/25 08:07:59;;;;;;;33.08;12.80;;;;;;;4.23;100.00;103040.50;4896905;29;20272;-48
2022/01/25 08:10:25;;;;;;;18.15;11.23;;;;;;;4.30;100.00;103045.09;4898368;29;20189;-46
2022/01/25 08:12:51;;;;;;;23.90;12.00;;;;;;;4.23;100.00;103043.16;4897914;29;20177;-47
2022/01/25 08:15:17;;;;;;;27.20;12.18;;;;;;;4.25;100.00;103044.09;4895004;29;20180;-45
2022/01/25 08:17:43;;;;;;;26.17;11.82;;;;;;;4.30;100.00;103041.53;4897819;29;20201;-46
2022/01/25 08:20:08;;;;;;;25.25;11.55;;;;;;;4.28;100.00;103030.88;4897972;29;20279;-44
2022/01/25 08:22:34;;;;;;;28.70;12.90;;;;;;;4.29;100.00;103034.47;4896969;29;20272;-47
2022/01/25 08:25:00;;;;;;;22.90;12.27;;;;;;;4.32;100.00;103042.47;4896364;29;20308;-48
2022/01/25 08:27:26;;;;;;;22.73;11.60;;;;;;;4.33;100.00;103041.63;4897859;29;20197;-49
2022/01/25 08:29:53;;;;;;;21.15;11.60;;;;;;;4.36;100.00;103044.34;4897874;29;20259;-49
2022/01/25 08:32:20;;;;;;;24.45;12.23;;;;;;;4.36;100.00;103047.00;4898184;29;20188;-47
2022/01/25 08:34:45;;;;;;;24.90;12.40;;;;;;;4.39;100.00;103051.47;4897214;29;20694;-47
2022/01/25 08:37:11;;;;;;;19.40;12.02;;;;;;;4.37;100.00;103054.09;4897415;29;20209;-45
2022/01/25 08:39:36;;;;;;;25.80;12.63;;;;;;;4.43;100.00;103061.31;4897963;29;20204;-48
2022/01/25 08:42:03;;;;;;;24.23;11.95;;;;;;;4.39;100.00;103057.69;4897596;29;20212;-48
2022/01/25 08:44:29;;;;;;;21.63;11.80;;;;;;;4.40;100.00;103050.63;4897230;29;20189;-48
2022/01/25 08:46:54;;;;;;;25.10;12.60;;;;;;;4.42;100.00;103051.56;4897522;29;20685;-48
2022/01/25 08:49:21;;;;;;;21.25;12.35;;;;;;;4.40;100.00;103059.50;4897770;29;20181;-47
2022/01/25 08:51:48;;;;;;;28.85;12.82;;;;;;;4.38;100.00;103057.66;4897457;29;20260;-46
2022/01/25 08:54:14;;;;;;;28.05;13.18;;;;;;;4.46;100.00;103053.41;4896966;29;20188;-46
2022/01/25 08:56:41;;;;;;;26.92;13.27;;;;;;;4.57;100.00;103057.22;4897405;29;20220;-44
2022/01/25 08:59:07;;;;;;;19.88;11.90;;;;;;;4.50;100.00;103052.63;4897078;29;20264;-46
2022/01/25 09:01:33;;;;;;;23.80;12.75;;;;;;;4.57;100.00;103051.91;4896867;29;20181;-47
2022/01/25 09:04:00;;;;;;;25.88;13.00;;;;;;;4.64;100.00;103045.88;4896995;29;20255;-47
2022/01/25 09:06:26;;;;;;;21.65;12.65;;;;;;;4.60;100.00;103051.97;4897652;29;20222;-45
2022/01/25 09:08:58;;;;;;;22.05;12.57;;;;;;;4.57;100.00;103046.59;4897476;29;20579;-46
2022/01/25 09:11:24;;;;;;;22.70;12.10;;;;;;;4.60;100.00;103044.00;4897458;29;20252;-47
2022/01/25 09:13:49;;;;;;;24.00;11.68;;;;;;;4.59;100.00;103055.50;4896941;29;20185;-48
2022/01/25 09:16:14;;;;;;;20.15;12.38;;;;;;;4.57;100.00;103045.69;4897123;29;20267;-43
2022/01/25 09:18:40;;;;;;;22.75;11.85;;;;;;;4.61;100.00;103043.13;4897270;29;20208;-47
2022/01/25 09:21:05;;;;;;;22.15;10.93;;;;;;;4.70;100.00;103047.75;4896855;29;20642;-45
2022/01/25 09:23:31;;;;;;;19.52;11.30;;;;;;;4.67;100.00;103053.00;4896632;29;20192;-46
2022/01/25 09:25:57;;;;;;;22.33;11.57;;;;;;;4.60;100.00;103051.97;4897032;29;20196;-45
2022/01/25 09:28:23;;;;;;;20.10;11.65;;;;;;;4.82;100.00;103053.34;4896595;29;20157;-47
2022/01/25 09:30:48;;;;;;;23.10;11.45;;;;;;;4.72;100.00;103051.34;4897050;29;20187;-46
2022/01/25 09:33:14;;;;;;;23.40;11.35;;;;;;;4.69;100.00;103045.97;4896838;29;20188;-48
2022/01/25 09:35:40;;;;;;;19.40;11.20;;;;;;;4.70;100.00;103053.97;4896687;29;20550;-46
2022/01/25 09:38:06;;;;;;;19.25;10.48;;;;;;;4.72;100.00;103052.25;4896726;29;20212;-46
2022/01/25 09:40:32;;;;;;;19.95;10.23;;;;;;;4.65;100.00;103060.03;4905401;29;20657;-47
2022/01/25 09:42:58;;;;;;;26.95;10.73;;;;;;;4.64;100.00;103064.47;4915781;29;20185;-47
2022/01/25 09:45:25;;;;;;;19.70;10.52;;;;;;;4.63;100.00;103065.31;4913797;29;20239;-44
2022/01/25 09:47:51;;;;;;;19.20;9.68;;;;;;;4.66;100.00;103072.47;4915568;29;20577;-46
2022/01/25 09:50:17;;;;;;;19.35;9.48;;;;;;;4.69;100.00;103070.75;4915527;29;20183;-46
2022/01/25 09:52:43;;;;;;;17.15;10.45;;;;;;;4.65;100.00;103065.34;4915660;29;20630;-46
2022/01/25 09:55:12;;;;;;;17.90;9.57;;;;;;;4.71;100.00;103065.50;4914638;29;20362;-45
2022/01/25 09:57:38;;;;;;;21.15;8.95;;;;;;;4.75;100.00;103075.31;4915616;29;20740;-41
2022/01/25 10:00:06;;;;;;;18.02;8.52;;;;;;;4.78;100.00;103067.41;4915742;29;20180;-42
2022/01/25 10:02:50;;;;;;;20.27;8.95;;;;;;;4.72;100.00;103072.56;4915298;29;20176;-44
2022/01/25 10:05:33;;;;;;;20.00;10.07;;;;;;;4.81;100.00;103077.19;4929476;29;20168;-43
2022/01/25 10:08:08;;;;;;;16.40;7.97;;;;;;;4.86;100.00;103065.81;4915348;29;20188;-41
2022/01/25 10:10:37;;;;;;;16.65;8.60;;;;;;;4.87;100.00;103075.56;4915405;29;20183;-42
2022/01/25 10:13:08;;;;;;;14.77;8.07;;;;;;;4.81;100.00;103061.25;4914639;29;20177;-45
2022/01/25 10:15:33;;;;;;;18.55;8.25;;;;;;;4.91;100.00;103064.16;4914594;29;20614;-45
2022/01/25 10:17:59;;;;;;;15.10;8.13;;;;;;;4.83;100.00;103064.84;4915051;29;20228;-46
2022/01/25 10:20:26;;;;;;;20.50;8.18;;;;;;;4.83;100.00;103060.47;4914295;29;20263;-45
2022/01/25 10:22:51;;;;;;;14.10;8.68;;;;;;;4.86;100.00;103064.94;4896360;29;20208;-45
2022/01/25 10:25:30;;;;;;;16.90;8.65;;;;;;;4.85;100.00;103068.44;4895760;29;20230;-41
2022/01/25 10:28:10;;;;;;;20.40;8.05;;;;;;;4.90;100.00;103057.06;4895729;29;20256;-43
2022/01/25 10:30:50;;;;;;;14.35;7.00;;;;;;;4.86;100.00;103063.16;4896137;29;20259;-43
2022/01/25 10:33:23;;;;;;;14.07;7.68;;;;;;;4.88;100.00;103064.09;4896133;29;20199;-44
2022/01/25 10:35:49;;;;;;;20.85;7.57;;;;;;;4.88;100.00;103057.91;4896231;29;20176;-45
2022/01/25 10:38:28;;;;;;;14.93;7.78;;;;;;;4.98;100.00;103056.31;4895856;29;20685;-43
2022/01/25 10:40:56;;;;;;;13.38;7.38;;;;;;;5.08;100.00;103051.22;4895933;29;20172;-46
2022/01/25 10:43:23;;;;;;;12.75;6.75;;;;;;;5.04;100.00;103048.47;4895648;29;20693;-47
2022/01/25 10:46:08;;;;;;;14.68;7.20;;;;;;;5.01;100.00;103053.72;4895729;29;20188;-44
2022/01/25 10:48:34;;;;;;;13.98;6.85;;;;;;;4.97;100.00;103052.75;4895875;29;20596;-41
2022/01/25 10:51:13;;;;;;;14.18;6.43;;;;;;;5.05;100.00;103045.88;4895918;29;20216;-41
2022/01/25 10:53:39;;;;;;;11.90;6.75;;;;;;;5.07;100.00;103040.56;4895429;29;20180;-43
2022/01/25 10:56:06;;;;;;;16.95;6.00;;;;;;;5.16;100.00;103044.31;4895506;29;20279;-45
2022/01/25 10:58:40;;;;;;;14.55;6.43;;;;;;;5.16;100.00;103040.75;4896144;29;20613;-43
2022/01/25 11:01:06;;;;;;;7.95;5.95;;;;;;;5.08;100.00;103047.69;4895901;29;20176;-44
2022/01/25 11:03:36;;;;;;;17.40;6.88;;;;;;;5.11;100.00;103048.63;4895976;29;20173;-45
2022/01/25 11:06:16;;;;;;;13.00;6.53;;;;;;;5.02;100.00;103048.44;4895483;29;20176;-42
2022/01/25 11:08:43;;;;;;;15.88;5.90;;;;;;;5.09;100.00;103044.13;4896116;29;20212;-43
2022/01/25 11:11:11;;;;;;;10.95;6.28;;;;;;;5.02;100.00;103044.88;4895835;29;20179;-44
2022/01/25 11:13:41;;;;;;;14.07;6.40;;;;;;;4.93;100.00;103042.94;4895715;29;20323;-43
2022/01/25 11:16:11;;;;;;;14.90;6.97;;;;;;;4.94;100.00;103035.00;4895788;29;20205;-45
2022/01/25 11:18:38;;;;;;;12.00;6.38;;;;;;;4.98;100.00;103032.41;4895707;29;20725;-44
2022/01/25 11:21:07;;;;;;;12.88;6.85;;;;;;;4.99;100.00;103023.59;4895740;29;20177;-45
2022/01/25 11:23:34;;;;;;;11.30;6.38;;;;;;;5.05;100.00;103026.34;4894980;29;20192;-42
2022/01/25 11:26:06;;;;;;;9.60;6.18;;;;;;;5.04;100.00;103030.75;4894836;29;20215;-46
2022/01/25 11:28:33;;;;;;;11.13;6.10;;;;;;;5.05;100.00;103026.34;4895230;29;20177;-43
2022/01/25 11:31:01;;;;;;;15.07;6.43;;;;;;;5.05;100.00;103021.03;4895626;29;20264;-43
2022/01/25 11:33:29;;;;;;;13.57;6.10;;;;;;;5.17;100.00;103010.66;4895332;29;20165;-45
2022/01/25 11:35:54;;;;;;;13.82;6.68;;;;;;;5.08;100.00;103023.75;4895377;29;20188;-42
2022/01/25 11:38:32;;;;;;;13.77;6.15;;;;;;;5.14;100.00;103023.88;4895359;29;20209;-44
2022/01/25 11:40:57;;;;;;;15.13;6.50;;;;;;;5.04;100.00;103021.91;4895233;29;20224;-41
2022/01/25 11:43:23;;;;;;;12.52;6.43;;;;;;;5.15;100.00;103015.03;4895248;29;20259;-43
2022/01/25 11:45:49;;;;;;;10.00;6.55;;;;;;;5.04;100.00;103024.56;4895521;29;20232;-42
2022/01/25 11:48:33;;;;;;;11.48;6.68;;;;;;;5.18;100.00;103014.19;4895403;29;20710;-42
2022/01/25 11:51:01;;;;;;;16.23;7.28;;;;;;;5.01;100.00;103012.13;4895506;29;20173;-44
2022/01/25 11:53:29;;;;;;;13.48;7.03;;;;;;;5.03;100.00;103014.78;4893822;29;20252;-42
2022/01/25 11:55:55;;;;;;;13.57;6.82;;;;;;;5.02;100.00;103013.91;4895045;29;20183;-42
2022/01/25 11:58:23;;;;;;;13.40;6.88;;;;;;;5.01;100.00;103012.13;4895025;29;20205;-42
2022/01/25 12:00:53;;;;;;;14.07;7.03;;;;;;;5.02;100.00;103005.94;4895453;29;20260;-43
2022/01/25 12:03:26;;;;;;;13.48;6.63;;;;;;;5.09;100.00;103010.47;4895051;29;20169;-47
2022/01/25 12:06:00;;;;;;;12.77;6.68;;;;;;;5.05;100.00;102997.13;4895338;29;20603;-42
2022/01/25 12:08:52;;;;;;;16.80;6.68;;;;;;;5.00;100.00;103004.13;4895376;29;20249;-45
2022/01/25 12:11:25;;;;;;;13.20;6.78;;;;;;;5.03;100.00;103007.72;4891270;29;20666;-41
2022/01/25 12:14:13;;;;;;;14.80;5.57;;;;;;;4.98;100.00;102995.22;4895066;29;20722;-43
2022/01/25 12:16:45;;;;;;;11.75;5.95;;;;;;;5.05;100.00;102983.81;4894968;29;20204;-44
2022/01/25 12:19:14;;;;;;;11.63;6.38;;;;;;;5.08;100.00;102994.53;4895253;29;20256;-42
2022/01/25 12:21:49;;;;;;;8.80;6.03;;;;;;;5.14;100.00;102989.34;4894959;29;20185;-43
2022/01/25 12:24:19;;;;;;;10.13;6.40;;;;;;;5.16;100.00;102985.84;4893636;29;20192;-43
2022/01/25 12:27:02;;;;;;;11.10;6.03;;;;;;;5.09;100.00;102988.34;4894945;29;20227;-44
2022/01/25 12:29:33;;;;;;;10.77;6.00;;;;;;;5.07;100.00;102985.69;4895241;29;20480;-42
2022/01/25 12:32:23;;;;;;;8.15;5.80;;;;;;;5.10;100.00;102983.06;4895415;29;20169;-42
2022/01/25 12:35:12;;;;;;;12.63;6.22;;;;;;;5.05;100.00;102981.16;4895208;29;20165;-42
2022/01/25 12:37:43;;;;;;;13.80;5.97;;;;;;;5.07;100.00;102975.06;4898444;29;20251;-43
2022/01/25 12:40:31;;;;;;;11.75;6.32;;;;;;;5.09;100.00;102969.75;4898331;29;20253;-45
2022/01/25 12:43:04;;;;;;;9.65;5.57;;;;;;;5.09;100.00;102970.63;4898598;29;20177;-42
2022/01/25 12:45:43;;;;;;;10.27;5.78;;;;;;;5.11;100.00;102968.00;4898202;29;20179;-42
2022/01/25 12:48:11;;;;;;;10.70;5.90;;;;;;;5.17;100.00;102957.50;4898490;29;20228;-40
2022/01/25 12:50:39;;;;;;;9.48;5.97;;;;;;;5.19;100.00;102958.44;4898163;29;20168;-41
2022/01/25 12:53:07;;;;;;;15.40;6.43;;;;;;;5.21;100.00;102961.13;4898482;29;20501;-41
2022/01/25 12:55:36;;;;;;;10.55;5.93;;;;;;;5.17;100.00;102954.84;4897957;29;20177;-42
2022/01/25 12:58:04;;;;;;;13.10;6.10;;;;;;;5.15;100.00;102957.47;4898371;29;20287;-42